createdAt,value
2022-11-15T01:10:44.437Z,23.20
2022-11-15T01:13:41.950Z,23.10
2022-11-15T01:16:36.693Z,23.10
2022-11-15T01:19:30.702Z,23.10
2022-11-15T01:22:26.639Z,23.10
2022-11-15T01:25:20.493Z,23.00
2022-11-15T01:28:15.054Z,23.00
2022-11-15T01:31:10.881Z,22.80
2022-11-15T02:30:36.325Z,23.40
2022-11-15T02:45:41.561Z,23.80
2022-11-15T03:35:51.714Z,23.10
2022-11-15T04:02:08.611Z,23.40
2022-11-15T04:05:01.970Z,23.30
2022-11-15T04:10:51.209Z,23.20
2022-11-15T04:13:49.478Z,23.30
2022-11-15T04:16:45.412Z,23.30
2022-11-15T04:19:54.707Z,23.20
2022-11-15T04:23:04.133Z,23.20
2022-11-15T04:26:01.379Z,23.30
2022-11-15T04:29:10.816Z,23.10
2022-11-15T04:32:06.356Z,23.10
2022-11-15T04:35:00.352Z,22.90
2022-11-15T04:40:49.293Z,22.70
2022-11-15T04:43:43.021Z,22.50
2022-11-15T04:46:36.303Z,22.40
2022-11-15T04:49:33.455Z,22.40
2022-11-15T04:52:27.223Z,22.50
2022-11-15T04:55:21.624Z,22.40
2022-11-15T04:58:17.523Z,22.40
2022-11-15T05:01:15.108Z,22.50
2022-11-15T05:04:26.552Z,22.60
2022-11-15T05:10:21.031Z,22.60
2022-11-15T05:13:15.073Z,22.60
2022-11-15T06:14:24.202Z,22.20
2022-11-15T06:17:19.844Z,22.20
2022-11-15T06:49:15.381Z,22.20
2022-11-15T06:52:12.291Z,21.90
2022-11-15T06:55:07.589Z,21.90
2022-11-15T06:58:01.408Z,22.00
2022-11-15T07:00:55.381Z,21.90
2022-11-15T07:03:50.488Z,21.80
2022-11-15T07:06:44.205Z,21.90
2022-11-15T07:09:40.360Z,21.90
2022-11-15T07:12:33.634Z,22.10
2022-11-15T07:15:30.064Z,22.00
2022-11-15T07:18:24.484Z,22.10
2022-11-15T07:21:19.694Z,22.10
2022-11-15T07:24:16.054Z,22.00
2022-11-15T07:27:12.970Z,22.10
2022-11-15T07:30:07.149Z,22.00
2022-11-15T07:33:01.887Z,22.00
2022-11-15T07:38:52.325Z,22.20
2022-11-15T08:05:14.236Z,21.50
2022-11-15T08:08:08.334Z,21.60
2022-11-15T08:11:03.848Z,21.40
2022-11-15T08:13:58.249Z,21.20
2022-11-15T08:16:53.362Z,21.20
2022-11-15T08:19:49.950Z,21.30
2022-11-15T08:22:44.341Z,21.30
2022-11-15T08:25:39.873Z,21.30
2022-11-15T08:28:34.300Z,21.40
2022-11-15T08:31:27.471Z,21.40
2022-11-15T08:34:21.503Z,21.40
2022-11-15T08:37:18.340Z,21.40
2022-11-15T08:40:14.518Z,21.40
2022-11-15T08:43:08.419Z,21.30
2022-11-15T08:46:04.031Z,21.30
2022-11-15T08:48:58.040Z,21.10
2022-11-15T08:51:52.213Z,21.10
2022-11-15T08:54:47.396Z,21.10
2022-11-15T08:57:41.157Z,21.00
2022-11-15T09:00:34.374Z,20.80
2022-11-15T09:03:29.403Z,20.70
2022-11-15T09:06:23.794Z,20.70
2022-11-15T09:09:16.871Z,20.70
2022-11-15T09:12:13.130Z,20.70
2022-11-15T09:15:06.572Z,20.60
2022-11-15T09:18:03.715Z,20.60
2022-11-15T09:21:00.299Z,20.60
2022-11-15T09:23:57.045Z,20.60
2022-11-15T09:30:03.536Z,20.60
2022-11-15T09:32:57.514Z,20.60
2022-11-15T09:35:51.582Z,20.60
2022-11-15T09:38:45.053Z,20.60
2022-11-15T09:42:13.590Z,20.60
2022-11-15T09:45:24.607Z,20.50
2022-11-15T09:48:33.445Z,20.50
2022-11-15T09:51:37.540Z,20.50
2022-11-15T09:54:51.483Z,20.50
2022-11-15T09:57:21.308Z,20.50
2022-11-15T10:00:43.913Z,20.50
2022-11-15T10:03:22.848Z,20.50
2022-11-15T10:06:01.173Z,20.40
2022-11-15T10:08:52.763Z,20.40
2022-11-15T10:11:37.406Z,20.30
2022-11-15T10:14:20.348Z,20.40
2022-11-15T10:17:23.428Z,20.50
2022-11-15T10:20:11.642Z,20.60
2022-11-15T10:22:52.787Z,20.60
2022-11-15T10:25:31.355Z,20.30
2022-11-15T10:28:16.168Z,20.10
2022-11-15T10:30:53.501Z,20.10
2022-11-15T10:33:40.730Z,20.10
2022-11-15T10:36:27.437Z,20.00
2022-11-15T10:39:04.466Z,19.80
2022-11-15T10:41:45.857Z,19.80
2022-11-15T10:44:27.707Z,19.90
2022-11-15T10:47:28.205Z,19.80
2022-11-15T10:50:06.408Z,19.90
2022-11-15T10:52:53.326Z,19.90
2022-11-15T10:55:33.899Z,19.90
2022-11-15T10:58:12.775Z,20.00
2022-11-15T11:00:49.251Z,19.90
2022-11-15T11:03:40.861Z,19.90
2022-11-15T11:06:18.862Z,19.90
2022-11-15T11:09:26.622Z,20.00
2022-11-15T11:12:02.212Z,19.90
2022-11-15T11:14:40.670Z,19.90
2022-11-15T11:17:21.888Z,19.90
2022-11-15T11:20:06.627Z,19.80
2022-11-15T11:22:50.332Z,19.70
2022-11-15T11:25:38.915Z,19.60
2022-11-15T11:28:38.205Z,19.60
2022-11-15T11:31:26.345Z,19.60
2022-11-15T11:34:11.952Z,19.60
2022-11-15T11:36:55.877Z,19.60
2022-11-15T11:39:48.120Z,19.60
2022-11-15T11:42:38.101Z,19.50
2022-11-15T11:45:25.678Z,19.50
2022-11-15T11:48:08.000Z,19.50
2022-11-15T11:50:47.315Z,19.50
2022-11-15T11:53:31.525Z,19.40
2022-11-15T11:56:15.351Z,19.40
2022-11-15T11:58:54.154Z,19.20
2022-11-15T12:01:33.267Z,19.20
2022-11-15T12:04:16.896Z,19.10
2022-11-15T12:06:57.495Z,19.10
2022-11-15T12:09:39.903Z,19.10
2022-11-15T12:12:21.409Z,19.00
2022-11-15T12:15:02.351Z,19.00
2022-11-15T12:17:38.834Z,19.00
2022-11-15T12:20:24.257Z,18.90
2022-11-15T12:23:04.366Z,18.90
2022-11-15T12:25:57.099Z,18.80
2022-11-15T12:28:52.893Z,18.70
2022-11-15T12:31:44.627Z,18.70
2022-11-15T12:34:50.899Z,18.60
2022-11-15T12:38:01.675Z,18.60
2022-11-15T12:40:42.785Z,18.60
2022-11-15T12:43:41.524Z,18.50
2022-11-15T12:46:28.618Z,18.50
2022-11-15T12:49:07.585Z,18.50
2022-11-15T12:52:13.226Z,18.50
2022-11-15T12:55:37.724Z,18.50
2022-11-15T12:58:48.854Z,18.50
2022-11-15T13:02:00.201Z,18.50
2022-11-15T13:04:38.062Z,18.50
2022-11-15T13:07:33.537Z,18.40
2022-11-15T13:10:36.667Z,18.50
2022-11-15T13:13:14.889Z,18.50
2022-11-15T13:16:05.557Z,18.50
2022-11-15T13:18:43.982Z,18.40
2022-11-15T13:21:47.173Z,18.40
2022-11-15T13:24:24.980Z,18.30
2022-11-15T13:27:01.547Z,18.30
2022-11-15T13:29:37.030Z,18.30
2022-11-15T13:32:18.710Z,18.20
2022-11-15T13:34:56.120Z,18.20
2022-11-15T13:37:40.009Z,18.20
2022-11-15T13:40:30.041Z,18.20
2022-11-15T13:43:05.963Z,18.20
2022-11-15T13:45:41.917Z,18.20
2022-11-15T13:48:18.435Z,18.20
2022-11-15T13:50:56.069Z,18.10
2022-11-15T13:53:33.696Z,18.10
2022-11-15T13:56:10.382Z,18.00
2022-11-15T13:58:47.022Z,18.10
2022-11-15T14:01:25.683Z,18.10
2022-11-15T14:04:03.525Z,18.10
2022-11-15T14:06:49.808Z,18.00
2022-11-15T14:09:48.022Z,18.10
2022-11-15T14:12:37.982Z,18.00
2022-11-15T14:15:32.542Z,18.00
2022-11-15T14:18:08.768Z,18.00
2022-11-15T14:20:46.131Z,17.90
2022-11-15T14:23:30.547Z,17.90
2022-11-15T14:26:12.046Z,17.90
2022-11-15T14:28:47.517Z,17.90
2022-11-15T14:31:23.318Z,17.90
2022-11-15T14:33:59.307Z,17.80
2022-11-15T14:36:35.049Z,17.80
2022-11-15T14:39:12.340Z,17.70
2022-11-15T14:41:50.033Z,17.70
2022-11-15T14:44:26.344Z,17.60
2022-11-15T14:47:03.265Z,17.50
2022-11-15T14:49:39.759Z,17.50
2022-11-15T14:52:33.017Z,17.50
2022-11-15T14:55:17.015Z,17.50
2022-11-15T14:57:55.145Z,17.40
2022-11-15T15:00:35.200Z,17.30
2022-11-15T15:03:11.667Z,17.30
2022-11-15T15:05:48.778Z,17.30
2022-11-15T15:08:24.750Z,17.40
2022-11-15T15:11:00.770Z,17.40
2022-11-15T15:13:39.451Z,17.40
2022-11-15T15:16:15.778Z,17.40
2022-11-15T15:18:51.906Z,17.30
2022-11-15T15:21:37.206Z,17.30
2022-11-15T15:24:14.958Z,17.10
2022-11-15T15:26:52.408Z,17.20
2022-11-15T15:29:30.290Z,17.20
2022-11-15T15:32:06.674Z,17.20
2022-11-15T15:34:42.357Z,17.30
2022-11-15T15:37:29.881Z,17.30
2022-11-15T15:40:05.920Z,17.30
2022-11-15T15:42:41.895Z,17.30
2022-11-15T15:45:21.410Z,17.30
2022-11-15T15:47:57.509Z,17.30
2022-11-15T15:50:35.215Z,17.20
2022-11-15T15:53:11.259Z,17.10
2022-11-15T15:55:46.443Z,17.10
2022-11-15T15:58:21.901Z,17.20
2022-11-15T16:00:59.674Z,17.20
2022-11-15T16:03:36.010Z,17.10
2022-11-15T16:06:26.459Z,17.20
2022-11-15T16:09:15.205Z,17.20
2022-11-15T16:11:53.110Z,17.20
2022-11-15T16:14:31.125Z,17.10
2022-11-15T16:17:08.572Z,17.20
2022-11-15T16:19:44.495Z,17.10
2022-11-15T16:22:20.648Z,17.10
2022-11-15T16:24:56.474Z,17.10
2022-11-15T16:27:31.814Z,17.00
2022-11-15T16:30:07.569Z,17.10
2022-11-15T16:32:45.406Z,17.00
2022-11-15T16:35:22.891Z,17.00
2022-11-15T16:37:58.088Z,17.00
2022-11-15T16:40:42.258Z,16.90
2022-11-15T16:43:18.759Z,17.00
2022-11-15T16:45:56.688Z,16.90
2022-11-15T16:48:36.501Z,16.90
2022-11-15T16:51:12.801Z,16.80
2022-11-15T16:53:48.800Z,16.80
2022-11-15T16:56:29.692Z,16.80
2022-11-15T16:59:06.059Z,16.80
2022-11-15T17:01:48.359Z,16.70
2022-11-15T17:04:29.395Z,16.70
2022-11-15T17:07:05.877Z,16.80
2022-11-15T17:09:41.768Z,16.80
2022-11-15T17:12:18.648Z,16.80
2022-11-15T17:14:54.771Z,16.90
2022-11-15T17:17:30.822Z,16.80
2022-11-15T17:20:11.507Z,16.80
2022-11-15T17:22:46.987Z,16.80
2022-11-15T17:25:22.313Z,16.80
2022-11-15T17:27:58.310Z,16.80
2022-11-15T17:30:34.212Z,16.90
2022-11-15T17:33:10.993Z,16.90
2022-11-15T17:35:48.323Z,17.00
2022-11-15T17:38:25.855Z,17.00
2022-11-15T17:41:08.659Z,17.00
2022-11-15T17:43:44.681Z,17.00
2022-11-15T17:46:22.526Z,16.90
2022-11-15T17:49:00.031Z,16.90
2022-11-15T17:51:37.570Z,16.90
2022-11-15T17:54:17.553Z,16.90
2022-11-15T17:56:53.912Z,16.90
2022-11-15T17:59:29.876Z,17.00
2022-11-15T18:02:05.613Z,17.00
2022-11-15T18:04:41.921Z,16.90
2022-11-15T18:07:19.190Z,16.90
2022-11-15T18:09:55.378Z,16.90
2022-11-15T18:12:31.267Z,16.90
2022-11-15T18:15:06.465Z,16.90
2022-11-15T18:17:42.110Z,16.90
2022-11-15T18:20:17.843Z,16.80
2022-11-15T18:22:58.884Z,16.80
2022-11-15T18:25:34.797Z,16.80
2022-11-15T18:28:10.784Z,16.80
2022-11-15T18:30:46.854Z,16.90
2022-11-15T18:33:22.132Z,16.90
2022-11-15T18:36:04.895Z,16.80
2022-11-15T18:38:43.360Z,16.80
2022-11-15T18:41:22.302Z,16.70
2022-11-15T18:43:58.028Z,16.70
2022-11-15T18:46:34.839Z,16.60
2022-11-15T18:49:12.422Z,16.50
2022-11-15T18:51:48.064Z,16.50
2022-11-15T18:54:30.633Z,16.60
2022-11-15T18:57:07.146Z,16.50
2022-11-15T18:59:43.121Z,16.50
2022-11-15T19:02:18.520Z,16.50
2022-11-15T19:04:53.940Z,16.50
2022-11-15T19:07:29.830Z,16.50
2022-11-15T19:10:07.033Z,16.60
2022-11-15T19:12:42.677Z,16.60
2022-11-15T19:15:18.263Z,16.70
2022-11-15T19:17:55.006Z,16.80
2022-11-15T19:20:30.843Z,16.90
2022-11-15T19:23:06.870Z,17.00
2022-11-15T19:25:45.002Z,17.10
2022-11-15T19:28:20.952Z,17.30
2022-11-15T19:30:56.852Z,17.30
2022-11-15T19:33:33.107Z,17.40
2022-11-15T19:36:11.111Z,17.50
2022-11-15T19:38:47.158Z,17.60
2022-11-15T19:41:26.671Z,17.70
2022-11-15T19:44:02.129Z,17.70
2022-11-15T19:46:37.724Z,17.70
2022-11-15T19:49:15.592Z,17.70
2022-11-15T19:51:51.516Z,17.80
2022-11-15T19:54:27.500Z,17.80
2022-11-15T19:57:04.896Z,17.90
2022-11-15T19:59:40.831Z,18.00
2022-11-15T20:02:17.610Z,17.90
2022-11-15T20:04:53.330Z,18.00
2022-11-15T20:07:30.005Z,18.10
2022-11-15T20:10:05.940Z,18.20
2022-11-15T20:12:44.026Z,18.30
2022-11-15T20:15:20.193Z,18.30
2022-11-15T20:17:56.473Z,18.30
2022-11-15T20:20:32.270Z,18.40
2022-11-15T20:23:07.596Z,18.50
2022-11-15T20:25:43.909Z,18.60
2022-11-15T20:28:24.016Z,18.60
2022-11-15T20:31:01.369Z,18.70
2022-11-15T20:33:36.699Z,18.70
2022-11-15T20:36:15.155Z,18.70
2022-11-15T20:38:51.918Z,18.70
2022-11-15T20:41:27.547Z,18.80
2022-11-15T20:44:06.933Z,18.80
2022-11-15T20:46:42.782Z,18.80
2022-11-15T20:49:18.928Z,18.90
2022-11-15T20:51:55.680Z,18.90
2022-11-15T20:54:31.687Z,18.90
2022-11-15T20:57:08.246Z,19.10
2022-11-15T20:59:47.458Z,19.20
2022-11-15T21:02:23.355Z,19.20
2022-11-15T21:04:59.176Z,19.20
2022-11-15T21:07:35.317Z,19.30
2022-11-15T21:10:27.647Z,19.40
2022-11-15T21:13:03.048Z,19.50
2022-11-15T21:15:41.631Z,19.50
2022-11-15T21:18:17.990Z,19.30
2022-11-15T21:20:55.449Z,19.20
2022-11-15T21:23:31.834Z,19.30
2022-11-15T21:26:07.134Z,19.50
2022-11-15T21:28:43.606Z,19.40
2022-11-15T21:31:21.689Z,19.60
2022-11-15T21:33:57.632Z,19.70
2022-11-15T21:36:32.999Z,19.80
2022-11-15T21:39:09.153Z,19.90
2022-11-15T21:41:44.862Z,19.80
2022-11-15T21:44:20.610Z,19.70
2022-11-15T21:46:58.581Z,19.80
2022-11-15T21:49:35.714Z,19.90
2022-11-15T21:52:11.487Z,20.00
2022-11-15T21:54:47.377Z,20.00
2022-11-15T21:57:23.474Z,20.10
2022-11-15T22:05:36.314Z,19.70
2022-11-15T22:08:11.828Z,19.70
2022-11-15T22:10:51.282Z,19.80
2022-11-15T22:13:26.948Z,19.90
2022-11-15T22:16:03.078Z,20.10
2022-11-15T22:18:43.174Z,20.10
2022-11-15T22:21:20.183Z,20.10
2022-11-15T22:23:56.001Z,20.20
2022-11-15T22:26:31.890Z,20.30
2022-11-15T22:29:07.653Z,20.30
2022-11-15T22:31:42.796Z,20.50
2022-11-15T22:34:20.582Z,20.60
2022-11-15T22:39:53.246Z,20.90
2022-11-15T22:42:29.553Z,20.90
2022-11-15T22:45:05.716Z,21.10
2022-11-15T22:47:41.037Z,20.80
2022-11-15T22:55:32.345Z,20.60
2022-11-15T23:00:43.355Z,20.80
2022-11-15T23:43:24.419Z,21.70
